sensor_id;sensor_type;location;lat;lon;timestamp;pressure;altitude;pressure_sealevel;temperature;humidity
53526;BME280;40551;50.478;19.378;2023-07-02T00:01:47;96917.20;;;15.83;84.51
53526;BME280;40551;50.478;19.378;2023-07-02T00:04:19;96913.74;;;15.79;84.52
53526;BME280;40551;50.478;19.378;2023-07-02T00:06:51;96916.67;;;15.77;84.83
53526;BME280;40551;50.478;19.378;2023-07-02T00:09:24;96918.55;;;15.74;84.74
53526;BME280;40551;50.478;19.378;2023-07-02T00:11:57;96920.64;;;15.72;84.90
53526;BME280;40551;50.478;19.378;2023-07-02T00:14:29;96922.61;;;15.68;84.75
53526;BME280;40551;50.478;19.378;2023-07-02T00:17:03;96922.19;;;15.65;84.72
53526;BME280;40551;50.478;19.378;2023-07-02T00:19:35;96918.87;;;15.62;84.95
53526;BME280;40551;50.478;19.378;2023-07-02T00:22:12;96916.77;;;15.57;85.03
53526;BME280;40551;50.478;19.378;2023-07-02T00:24:46;96916.48;;;15.57;85.39
53526;BME280;40551;50.478;19.378;2023-07-02T00:27:18;96918.61;;;15.58;85.27
53526;BME280;40551;50.478;19.378;2023-07-02T00:29:50;96918.65;;;15.60;85.45
53526;BME280;40551;50.478;19.378;2023-07-02T00:32:23;96915.95;;;15.61;85.56
53526;BME280;40551;50.478;19.378;2023-07-02T00:34:55;96915.38;;;15.63;85.58
53526;BME280;40551;50.478;19.378;2023-07-02T00:37:27;96914.48;;;15.62;85.67
53526;BME280;40551;50.478;19.378;2023-07-02T00:39:59;96919.17;;;15.58;85.38
53526;BME280;40551;50.478;19.378;2023-07-02T00:42:33;96921.61;;;15.53;85.43
53526;BME280;40551;50.478;19.378;2023-07-02T00:45:08;96921.08;;;15.51;85.72
53526;BME280;40551;50.478;19.378;2023-07-02T00:47:40;96926.73;;;15.50;85.85
53526;BME280;40551;50.478;19.378;2023-07-02T00:50:15;96925.39;;;15.50;85.89
53526;BME280;40551;50.478;19.378;2023-07-02T00:52:46;96918.35;;;15.47;86.11
53526;BME280;40551;50.478;19.378;2023-07-02T00:55:19;96918.41;;;15.45;85.85
53526;BME280;40551;50.478;19.378;2023-07-02T00:57:51;96919.67;;;15.41;86.07
53526;BME280;40551;50.478;19.378;2023-07-02T01:00:23;96920.63;;;15.39;86.16
53526;BME280;40551;50.478;19.378;2023-07-02T01:02:58;96923.77;;;15.40;86.43
53526;BME280;40551;50.478;19.378;2023-07-02T01:05:31;96924.12;;;15.42;86.67
53526;BME280;40551;50.478;19.378;2023-07-02T01:08:07;96922.27;;;15.43;86.58
53526;BME280;40551;50.478;19.378;2023-07-02T01:10:39;96917.65;;;15.45;86.88
53526;BME280;40551;50.478;19.378;2023-07-02T01:13:16;96914.37;;;15.43;86.59
53526;BME280;40551;50.478;19.378;2023-07-02T01:15:52;96914.04;;;15.39;86.43
53526;BME280;40551;50.478;19.378;2023-07-02T01:18:24;96914.70;;;15.36;86.57
53526;BME280;40551;50.478;19.378;2023-07-02T01:20:57;96915.27;;;15.37;86.99
53526;BME280;40551;50.478;19.378;2023-07-02T01:23:33;96914.84;;;15.38;86.87
53526;BME280;40551;50.478;19.378;2023-07-02T01:26:07;96911.31;;;15.35;86.96
53526;BME280;40551;50.478;19.378;2023-07-02T01:28:39;96910.65;;;15.33;86.89
53526;BME280;40551;50.478;19.378;2023-07-02T01:31:11;96907.48;;;15.32;87.10
53526;BME280;40551;50.478;19.378;2023-07-02T01:33:43;96907.48;;;15.34;87.04
53526;BME280;40551;50.478;19.378;2023-07-02T01:36:15;96906.27;;;15.34;86.86
53526;BME280;40551;50.478;19.378;2023-07-02T01:38:49;96908.62;;;15.33;86.83
53526;BME280;40551;50.478;19.378;2023-07-02T01:41:22;96907.13;;;15.32;87.08
53526;BME280;40551;50.478;19.378;2023-07-02T01:43:54;96903.33;;;15.30;86.83
53526;BME280;40551;50.478;19.378;2023-07-02T01:46:28;96906.02;;;15.28;86.99
53526;BME280;40551;50.478;19.378;2023-07-02T01:49:01;96905.34;;;15.26;86.82
53526;BME280;40551;50.478;19.378;2023-07-02T01:51:34;96902.34;;;15.24;86.88
53526;BME280;40551;50.478;19.378;2023-07-02T01:54:06;96900.64;;;15.22;86.74
53526;BME280;40551;50.478;19.378;2023-07-02T01:56:39;96896.37;;;15.19;86.71
53526;BME280;40551;50.478;19.378;2023-07-02T01:59:12;96894.00;;;15.15;86.77
53526;BME280;40551;50.478;19.378;2023-07-02T02:01:45;96892.98;;;15.14;86.81
53526;BME280;40551;50.478;19.378;2023-07-02T02:04:18;96892.27;;;15.12;86.85
53526;BME280;40551;50.478;19.378;2023-07-02T02:06:52;96889.29;;;15.11;86.94
53526;BME280;40551;50.478;19.378;2023-07-02T02:09:25;96887.93;;;15.09;86.84
53526;BME280;40551;50.478;19.378;2023-07-02T02:11:59;96888.32;;;15.07;86.78
53526;BME280;40551;50.478;19.378;2023-07-02T02:14:31;96885.52;;;15.06;86.86
53526;BME280;40551;50.478;19.378;2023-07-02T02:17:05;96885.88;;;15.04;86.85
53526;BME280;40551;50.478;19.378;2023-07-02T02:19:38;96890.31;;;15.01;86.63
53526;BME280;40551;50.478;19.378;2023-07-02T02:22:10;96889.04;;;14.99;86.60
53526;BME280;40551;50.478;19.378;2023-07-02T02:24:43;96884.55;;;14.95;86.59
53526;BME280;40551;50.478;19.378;2023-07-02T02:27:15;96885.81;;;14.94;86.59
53526;BME280;40551;50.478;19.378;2023-07-02T02:29:50;96883.73;;;14.92;86.50
53526;BME280;40551;50.478;19.378;2023-07-02T02:32:21;96883.31;;;14.90;86.57
53526;BME280;40551;50.478;19.378;2023-07-02T02:34:55;96880.47;;;14.87;86.74
53526;BME280;40551;50.478;19.378;2023-07-02T02:37:27;96881.98;;;14.86;86.73
53526;BME280;40551;50.478;19.378;2023-07-02T02:40:00;96881.73;;;14.87;86.81
53526;BME280;40551;50.478;19.378;2023-07-02T02:42:34;96885.32;;;14.87;86.72
53526;BME280;40551;50.478;19.378;2023-07-02T02:45:08;96882.70;;;14.87;86.82
53526;BME280;40551;50.478;19.378;2023-07-02T02:47:44;96884.95;;;14.88;86.78
53526;BME280;40551;50.478;19.378;2023-07-02T02:50:22;96884.63;;;14.86;86.80
53526;BME280;40551;50.478;19.378;2023-07-02T02:52:56;96881.54;;;14.85;86.83
53526;BME280;40551;50.478;19.378;2023-07-02T02:55:31;96884.24;;;14.86;87.01
53526;BME280;40551;50.478;19.378;2023-07-02T02:58:05;96881.90;;;14.85;86.94
53526;BME280;40551;50.478;19.378;2023-07-02T03:00:43;96884.54;;;14.88;87.11
53526;BME280;40551;50.478;19.378;2023-07-02T03:03:17;96879.94;;;14.90;87.12
53526;BME280;40551;50.478;19.378;2023-07-02T03:05:53;96881.34;;;14.95;87.18
53526;BME280;40551;50.478;19.378;2023-07-02T03:08:28;96879.30;;;15.00;87.36
53526;BME280;40551;50.478;19.378;2023-07-02T03:10:59;96883.26;;;15.05;87.42
53526;BME280;40551;50.478;19.378;2023-07-02T03:13:31;96881.20;;;15.14;87.84
53526;BME280;40551;50.478;19.378;2023-07-02T03:16:04;96879.16;;;15.38;88.54
53526;BME280;40551;50.478;19.378;2023-07-02T03:18:37;96876.78;;;15.69;88.98
53526;BME280;40551;50.478;19.378;2023-07-02T03:21:10;96876.39;;;16.00;88.81
53526;BME280;40551;50.478;19.378;2023-07-02T03:23:43;96877.95;;;16.30;88.53
53526;BME280;40551;50.478;19.378;2023-07-02T03:26:16;96882.23;;;16.64;87.86
53526;BME280;40551;50.478;19.378;2023-07-02T03:28:49;96881.98;;;16.98;87.51
53526;BME280;40551;50.478;19.378;2023-07-02T03:31:21;96878.85;;;17.29;86.86
53526;BME280;40551;50.478;19.378;2023-07-02T03:33:53;96878.52;;;17.61;86.13
53526;BME280;40551;50.478;19.378;2023-07-02T03:36:27;96879.05;;;18.01;85.74
53526;BME280;40551;50.478;19.378;2023-07-02T03:39:00;96882.59;;;18.38;84.84
53526;BME280;40551;50.478;19.378;2023-07-02T03:41:33;96881.41;;;18.78;84.14
53526;BME280;40551;50.478;19.378;2023-07-02T03:44:05;96884.33;;;19.20;83.31
53526;BME280;40551;50.478;19.378;2023-07-02T03:46:38;96885.21;;;19.53;81.80
53526;BME280;40551;50.478;19.378;2023-07-02T03:49:12;96887.89;;;19.64;80.40
53526;BME280;40551;50.478;19.378;2023-07-02T03:51:44;96887.40;;;19.96;80.29
53526;BME280;40551;50.478;19.378;2023-07-02T03:54:16;96887.42;;;20.40;79.93
53526;BME280;40551;50.478;19.378;2023-07-02T03:56:48;96887.05;;;20.80;78.87
53526;BME280;40551;50.478;19.378;2023-07-02T03:59:20;96894.20;;;21.19;77.87
53526;BME280;40551;50.478;19.378;2023-07-02T04:01:52;96894.73;;;21.59;77.01
53526;BME280;40551;50.478;19.378;2023-07-02T04:04:24;96893.96;;;22.04;76.53
53526;BME280;40551;50.478;19.378;2023-07-02T04:06:56;96897.21;;;22.50;75.53
53526;BME280;40551;50.478;19.378;2023-07-02T04:09:28;96901.44;;;22.96;74.53
53526;BME280;40551;50.478;19.378;2023-07-02T04:12:03;96904.74;;;23.42;73.56
53526;BME280;40551;50.478;19.378;2023-07-02T04:14:37;96903.96;;;23.78;72.17
53526;BME280;40551;50.478;19.378;2023-07-02T04:17:09;96901.67;;;24.15;70.74
53526;BME280;40551;50.478;19.378;2023-07-02T04:19:41;96901.71;;;24.22;68.97
53526;BME280;40551;50.478;19.378;2023-07-02T04:22:14;96904.55;;;24.47;69.07
53526;BME280;40551;50.478;19.378;2023-07-02T04:24:47;96902.00;;;24.88;68.68
53526;BME280;40551;50.478;19.378;2023-07-02T04:27:24;96902.39;;;25.24;67.83
53526;BME280;40551;50.478;19.378;2023-07-02T04:30:17;96903.77;;;25.55;66.62
53526;BME280;40551;50.478;19.378;2023-07-02T04:32:49;96906.59;;;25.96;66.01
53526;BME280;40551;50.478;19.378;2023-07-02T04:35:22;96901.52;;;26.42;65.18
53526;BME280;40551;50.478;19.378;2023-07-02T04:37:54;96903.98;;;26.82;64.12
53526;BME280;40551;50.478;19.378;2023-07-02T04:40:28;96910.31;;;27.18;63.11
53526;BME280;40551;50.478;19.378;2023-07-02T04:43:00;96910.79;;;27.39;62.03
53526;BME280;40551;50.478;19.378;2023-07-02T04:45:34;96910.15;;;27.46;60.96
53526;BME280;40551;50.478;19.378;2023-07-02T04:48:08;96912.55;;;27.66;60.73
53526;BME280;40551;50.478;19.378;2023-07-02T04:50:41;96917.48;;;27.66;59.86
53526;BME280;40551;50.478;19.378;2023-07-02T04:53:14;96922.82;;;27.47;58.96
53526;BME280;40551;50.478;19.378;2023-07-02T04:55:47;96923.60;;;27.06;58.34
53526;BME280;40551;50.478;19.378;2023-07-02T04:58:19;96925.69;;;26.65;58.41
53526;BME280;40551;50.478;19.378;2023-07-02T05:00:52;96924.30;;;26.31;59.10
53526;BME280;40551;50.478;19.378;2023-07-02T05:03:25;96931.17;;;25.98;59.39
53526;BME280;40551;50.478;19.378;2023-07-02T05:05:58;96933.31;;;25.65;59.67
53526;BME280;40551;50.478;19.378;2023-07-02T05:08:31;96925.30;;;25.31;60.18
53526;BME280;40551;50.478;19.378;2023-07-02T05:11:03;96927.50;;;24.98;60.20
53526;BME280;40551;50.478;19.378;2023-07-02T05:13:35;96930.08;;;24.67;60.64
53526;BME280;40551;50.478;19.378;2023-07-02T05:16:07;96928.45;;;24.41;61.06
53526;BME280;40551;50.478;19.378;2023-07-02T05:18:39;96931.47;;;24.16;61.31
53526;BME280;40551;50.478;19.378;2023-07-02T05:21:12;96934.10;;;23.93;61.84
53526;BME280;40551;50.478;19.378;2023-07-02T05:23:44;96935.38;;;23.67;61.94
53526;BME280;40551;50.478;19.378;2023-07-02T05:26:17;96938.27;;;23.39;61.71
53526;BME280;40551;50.478;19.378;2023-07-02T05:28:49;96941.35;;;23.16;62.11
53526;BME280;40551;50.478;19.378;2023-07-02T05:31:23;96944.06;;;22.97;62.90
53526;BME280;40551;50.478;19.378;2023-07-02T05:33:56;96942.27;;;22.74;62.59
53526;BME280;40551;50.478;19.378;2023-07-02T05:36:27;96949.38;;;22.55;62.90
53526;BME280;40551;50.478;19.378;2023-07-02T05:39:00;96951.92;;;22.37;63.65
53526;BME280;40551;50.478;19.378;2023-07-02T05:41:32;96957.66;;;22.27;64.63
53526;BME280;40551;50.478;19.378;2023-07-02T05:44:05;96963.13;;;22.22;64.81
53526;BME280;40551;50.478;19.378;2023-07-02T05:46:37;96963.57;;;22.09;64.89
53526;BME280;40551;50.478;19.378;2023-07-02T05:49:10;96965.84;;;21.93;64.81
53526;BME280;40551;50.478;19.378;2023-07-02T05:51:43;96964.27;;;21.76;65.05
53526;BME280;40551;50.478;19.378;2023-07-02T05:54:15;96970.89;;;21.65;65.32
53526;BME280;40551;50.478;19.378;2023-07-02T05:56:48;96965.27;;;21.51;65.81
53526;BME280;40551;50.478;19.378;2023-07-02T05:59:20;96971.68;;;21.38;65.75
53526;BME280;40551;50.478;19.378;2023-07-02T06:01:53;96975.53;;;21.26;66.13
53526;BME280;40551;50.478;19.378;2023-07-02T06:04:26;96968.83;;;21.10;66.00
53526;BME280;40551;50.478;19.378;2023-07-02T06:06:58;96970.58;;;20.97;66.04
53526;BME280;40551;50.478;19.378;2023-07-02T06:09:31;96968.21;;;20.89;66.50
53526;BME280;40551;50.478;19.378;2023-07-02T06:12:04;96971.99;;;20.85;67.03
53526;BME280;40551;50.478;19.378;2023-07-02T06:14:36;96967.92;;;20.82;67.44
53526;BME280;40551;50.478;19.378;2023-07-02T06:17:08;96972.56;;;20.74;66.98
53526;BME280;40551;50.478;19.378;2023-07-02T06:19:41;96975.34;;;20.66;67.16
53526;BME280;40551;50.478;19.378;2023-07-02T06:22:13;96971.53;;;20.61;67.35
53526;BME280;40551;50.478;19.378;2023-07-02T06:24:45;96968.69;;;20.61;67.63
53526;BME280;40551;50.478;19.378;2023-07-02T06:27:18;96970.66;;;20.64;68.27
53526;BME280;40551;50.478;19.378;2023-07-02T06:29:50;96968.77;;;20.69;68.34
53526;BME280;40551;50.478;19.378;2023-07-02T06:32:23;96969.39;;;20.75;68.15
53526;BME280;40551;50.478;19.378;2023-07-02T06:34:55;96966.60;;;20.80;68.05
53526;BME280;40551;50.478;19.378;2023-07-02T06:37:27;96968.31;;;20.93;68.01
53526;BME280;40551;50.478;19.378;2023-07-02T06:39:59;96971.50;;;21.23;68.38
53526;BME280;40551;50.478;19.378;2023-07-02T06:42:32;96971.90;;;21.57;67.80
53526;BME280;40551;50.478;19.378;2023-07-02T06:45:04;96972.26;;;21.91;66.62
53526;BME280;40551;50.478;19.378;2023-07-02T06:47:37;96968.46;;;22.38;66.61
53526;BME280;40551;50.478;19.378;2023-07-02T06:50:10;96966.31;;;23.07;66.40
53526;BME280;40551;50.478;19.378;2023-07-02T06:52:45;96968.08;;;23.72;64.32
53526;BME280;40551;50.478;19.378;2023-07-02T06:55:17;96974.46;;;24.05;62.87
53526;BME280;40551;50.478;19.378;2023-07-02T06:57:49;96974.68;;;24.32;62.37
53526;BME280;40551;50.478;19.378;2023-07-02T07:00:22;96975.85;;;24.43;61.28
53526;BME280;40551;50.478;19.378;2023-07-02T07:02:55;96976.09;;;24.50;60.87
53526;BME280;40551;50.478;19.378;2023-07-02T07:05:27;96984.64;;;24.57;60.84
53526;BME280;40551;50.478;19.378;2023-07-02T07:08:00;96983.77;;;24.64;60.47
53526;BME280;40551;50.478;19.378;2023-07-02T07:10:33;96987.64;;;24.63;59.70
53526;BME280;40551;50.478;19.378;2023-07-02T07:13:06;96991.16;;;24.60;59.63
53526;BME280;40551;50.478;19.378;2023-07-02T07:15:43;96995.70;;;24.58;59.74
53526;BME280;40551;50.478;19.378;2023-07-02T07:18:15;96994.41;;;24.56;59.38
53526;BME280;40551;50.478;19.378;2023-07-02T07:20:50;97006.31;;;24.48;59.03
53526;BME280;40551;50.478;19.378;2023-07-02T07:23:23;97008.17;;;24.44;58.86
53526;BME280;40551;50.478;19.378;2023-07-02T07:25:55;97009.91;;;24.47;59.06
53526;BME280;40551;50.478;19.378;2023-07-02T07:28:27;97014.98;;;24.42;58.55
53526;BME280;40551;50.478;19.378;2023-07-02T07:30:58;97021.66;;;24.34;58.41
53526;BME280;40551;50.478;19.378;2023-07-02T07:33:31;97021.13;;;24.30;58.74
53526;BME280;40551;50.478;19.378;2023-07-02T07:36:03;97018.30;;;24.22;58.16
53526;BME280;40551;50.478;19.378;2023-07-02T07:38:36;97022.63;;;24.10;58.99
53526;BME280;40551;50.478;19.378;2023-07-02T07:41:08;97029.04;;;23.99;58.77
53526;BME280;40551;50.478;19.378;2023-07-02T07:43:41;97032.59;;;23.73;58.48
53526;BME280;40551;50.478;19.378;2023-07-02T07:46:13;97039.19;;;23.50;58.71
53526;BME280;40551;50.478;19.378;2023-07-02T07:48:45;97037.73;;;23.26;58.78
53526;BME280;40551;50.478;19.378;2023-07-02T07:51:17;97038.68;;;23.07;58.56
53526;BME280;40551;50.478;19.378;2023-07-02T07:53:49;97050.52;;;22.94;59.20
53526;BME280;40551;50.478;19.378;2023-07-02T07:56:21;97050.71;;;22.80;59.39
53526;BME280;40551;50.478;19.378;2023-07-02T07:58:53;97054.00;;;22.60;59.60
53526;BME280;40551;50.478;19.378;2023-07-02T08:01:27;97063.02;;;22.45;60.27
53526;BME280;40551;50.478;19.378;2023-07-02T08:04:00;97062.15;;;22.29;60.51
53526;BME280;40551;50.478;19.378;2023-07-02T08:06:32;97064.14;;;22.12;60.95
53526;BME280;40551;50.478;19.378;2023-07-02T08:09:05;97068.80;;;21.99;61.33
53526;BME280;40551;50.478;19.378;2023-07-02T08:11:38;97063.38;;;21.83;61.55
53526;BME280;40551;50.478;19.378;2023-07-02T08:14:11;97065.41;;;21.67;62.15
53526;BME280;40551;50.478;19.378;2023-07-02T08:16:43;97066.30;;;21.57;62.40
53526;BME280;40551;50.478;19.378;2023-07-02T08:19:14;97065.64;;;21.54;63.24
53526;BME280;40551;50.478;19.378;2023-07-02T08:21:47;97068.29;;;21.45;63.47
53526;BME280;40551;50.478;19.378;2023-07-02T08:24:19;97072.52;;;21.38;63.77
53526;BME280;40551;50.478;19.378;2023-07-02T08:26:51;97078.08;;;21.35;64.53
53526;BME280;40551;50.478;19.378;2023-07-02T08:29:24;97080.11;;;21.35;65.22
53526;BME280;40551;50.478;19.378;2023-07-02T08:31:57;97080.73;;;21.33;65.73
53526;BME280;40551;50.478;19.378;2023-07-02T08:34:30;97084.51;;;21.32;66.23
53526;BME280;40551;50.478;19.378;2023-07-02T08:37:04;97084.61;;;21.23;66.42
53526;BME280;40551;50.478;19.378;2023-07-02T08:39:37;97088.09;;;21.13;66.76
53526;BME280;40551;50.478;19.378;2023-07-02T08:42:10;97089.61;;;21.01;67.26
53526;BME280;40551;50.478;19.378;2023-07-02T08:44:44;97092.43;;;21.04;68.08
53526;BME280;40551;50.478;19.378;2023-07-02T08:47:17;97089.23;;;21.03;68.21
53526;BME280;40551;50.478;19.378;2023-07-02T08:49:52;97093.21;;;21.07;68.58
53526;BME280;40551;50.478;19.378;2023-07-02T08:52:24;97094.39;;;21.08;68.64
53526;BME280;40551;50.478;19.378;2023-07-02T08:54:57;97095.59;;;21.05;69.14
53526;BME280;40551;50.478;19.378;2023-07-02T08:57:28;97098.32;;;21.02;69.22
53526;BME280;40551;50.478;19.378;2023-07-02T09:00:00;97101.05;;;21.02;69.49
53526;BME280;40551;50.478;19.378;2023-07-02T09:02:35;97103.36;;;20.98;69.16
53526;BME280;40551;50.478;19.378;2023-07-02T09:05:09;97107.98;;;20.93;69.37
53526;BME280;40551;50.478;19.378;2023-07-02T09:07:48;97110.74;;;20.88;69.79
53526;BME280;40551;50.478;19.378;2023-07-02T09:10:31;97112.09;;;20.80;69.52
53526;BME280;40551;50.478;19.378;2023-07-02T09:13:07;97114.48;;;20.72;70.09
53526;BME280;40551;50.478;19.378;2023-07-02T09:15:41;97116.43;;;20.67;70.11
53526;BME280;40551;50.478;19.378;2023-07-02T09:18:18;97119.35;;;20.65;70.38
53526;BME280;40551;50.478;19.378;2023-07-02T09:20:53;97117.84;;;20.55;70.36
53526;BME280;40551;50.478;19.378;2023-07-02T09:23:35;97117.30;;;20.44;70.32
53526;BME280;40551;50.478;19.378;2023-07-02T09:26:07;97115.11;;;20.32;70.20
53526;BME280;40551;50.478;19.378;2023-07-02T09:28:39;97116.02;;;20.25;70.70
53526;BME280;40551;50.478;19.378;2023-07-02T09:31:11;97118.61;;;20.21;70.93
53526;BME280;40551;50.478;19.378;2023-07-02T09:33:44;97123.05;;;20.21;70.98
53526;BME280;40551;50.478;19.378;2023-07-02T09:36:16;97121.35;;;20.25;71.75
53526;BME280;40551;50.478;19.378;2023-07-02T09:38:48;97119.29;;;20.27;71.33
53526;BME280;40551;50.478;19.378;2023-07-02T09:41:20;97118.25;;;20.31;71.95
53526;BME280;40551;50.478;19.378;2023-07-02T09:43:52;97115.03;;;20.41;72.40
53526;BME280;40551;50.478;19.378;2023-07-02T09:46:25;97115.21;;;20.54;72.50
53526;BME280;40551;50.478;19.378;2023-07-02T09:48:57;97113.33;;;20.69;72.37
53526;BME280;40551;50.478;19.378;2023-07-02T09:51:30;97110.33;;;20.81;72.39
53526;BME280;40551;50.478;19.378;2023-07-02T09:54:03;97104.27;;;20.96;71.96
53526;BME280;40551;50.478;19.378;2023-07-02T09:56:35;97095.50;;;21.17;72.01
53526;BME280;40551;50.478;19.378;2023-07-02T09:59:07;97088.97;;;21.38;71.37
53526;BME280;40551;50.478;19.378;2023-07-02T10:01:39;97088.41;;;21.57;71.22
53526;BME280;40551;50.478;19.378;2023-07-02T10:04:16;97097.47;;;21.74;70.72
53526;BME280;40551;50.478;19.378;2023-07-02T10:06:52;97093.29;;;21.87;69.87
53526;BME280;40551;50.478;19.378;2023-07-02T10:09:37;97091.55;;;21.89;69.10
53526;BME280;40551;50.478;19.378;2023-07-02T10:12:20;97092.83;;;21.89;69.29
53526;BME280;40551;50.478;19.378;2023-07-02T10:14:55;97094.58;;;21.90;69.17
53526;BME280;40551;50.478;19.378;2023-07-02T10:17:30;97088.70;;;21.94;68.95
53526;BME280;40551;50.478;19.378;2023-07-02T10:20:05;97094.90;;;22.03;68.72
53526;BME280;40551;50.478;19.378;2023-07-02T10:22:46;97094.22;;;22.07;68.53
53526;BME280;40551;50.478;19.378;2023-07-02T10:25:28;97093.45;;;22.12;68.31
53526;BME280;40551;50.478;19.378;2023-07-02T10:28:00;97093.11;;;22.23;68.22
53526;BME280;40551;50.478;19.378;2023-07-02T10:30:37;97085.59;;;22.32;67.76
53526;BME280;40551;50.478;19.378;2023-07-02T10:33:11;97081.95;;;22.37;67.12
53526;BME280;40551;50.478;19.378;2023-07-02T10:35:45;97075.62;;;22.41;66.87
53526;BME280;40551;50.478;19.378;2023-07-02T10:38:23;97073.82;;;22.50;67.11
53526;BME280;40551;50.478;19.378;2023-07-02T10:40:59;97076.27;;;22.63;66.64
53526;BME280;40551;50.478;19.378;2023-07-02T10:43:32;97074.27;;;22.72;66.30
53526;BME280;40551;50.478;19.378;2023-07-02T10:46:04;97070.45;;;22.90;65.96
53526;BME280;40551;50.478;19.378;2023-07-02T10:48:37;97067.77;;;23.00;65.37
53526;BME280;40551;50.478;19.378;2023-07-02T10:51:16;97069.00;;;23.08;65.06
53526;BME280;40551;50.478;19.378;2023-07-02T10:53:57;97055.08;;;23.23;64.44
53526;BME280;40551;50.478;19.378;2023-07-02T10:56:31;97048.65;;;23.35;64.86
53526;BME280;40551;50.478;19.378;2023-07-02T10:59:04;97043.36;;;23.50;64.41
53526;BME280;40551;50.478;19.378;2023-07-02T11:01:35;97047.30;;;23.59;63.91
53526;BME280;40551;50.478;19.378;2023-07-02T11:04:07;97044.35;;;23.66;63.13
53526;BME280;40551;50.478;19.378;2023-07-02T11:06:41;97046.98;;;23.72;63.19
53526;BME280;40551;50.478;19.378;2023-07-02T11:09:18;97042.61;;;23.72;62.23
53526;BME280;40551;50.478;19.378;2023-07-02T11:11:53;97043.19;;;23.70;62.10
53526;BME280;40551;50.478;19.378;2023-07-02T11:14:30;97043.46;;;23.68;62.05
53526;BME280;40551;50.478;19.378;2023-07-02T11:17:05;97039.98;;;23.68;61.71
53526;BME280;40551;50.478;19.378;2023-07-02T11:19:38;97034.27;;;23.75;61.53
53526;BME280;40551;50.478;19.378;2023-07-02T11:22:10;97035.09;;;23.78;61.62
53526;BME280;40551;50.478;19.378;2023-07-02T11:24:42;97039.04;;;23.89;61.83
53526;BME280;40551;50.478;19.378;2023-07-02T11:27:22;97042.06;;;23.99;61.62
53526;BME280;40551;50.478;19.378;2023-07-02T11:30:01;97039.45;;;24.14;61.79
53526;BME280;40551;50.478;19.378;2023-07-02T11:32:45;97039.45;;;24.32;61.66
53526;BME280;40551;50.478;19.378;2023-07-02T11:35:19;97041.56;;;24.38;60.67
53526;BME280;40551;50.478;19.378;2023-07-02T11:37:52;97041.80;;;24.37;60.22
53526;BME280;40551;50.478;19.378;2023-07-02T11:40:26;97040.98;;;24.35;60.06
53526;BME280;40551;50.478;19.378;2023-07-02T11:42:58;97037.45;;;24.30;59.73
53526;BME280;40551;50.478;19.378;2023-07-02T11:45:30;97033.08;;;24.29;60.12
53526;BME280;40551;50.478;19.378;2023-07-02T11:48:04;97029.40;;;24.35;60.22
53526;BME280;40551;50.478;19.378;2023-07-02T11:50:36;97020.13;;;24.44;60.24
53526;BME280;40551;50.478;19.378;2023-07-02T11:53:08;97019.47;;;24.50;60.19
53526;BME280;40551;50.478;19.378;2023-07-02T11:55:41;97016.39;;;24.61;60.41
53526;BME280;40551;50.478;19.378;2023-07-02T11:58:13;97007.13;;;24.69;59.72
53526;BME280;40551;50.478;19.378;2023-07-02T12:00:45;97011.93;;;24.71;58.97
53526;BME280;40551;50.478;19.378;2023-07-02T12:03:17;97017.33;;;24.68;58.43
53526;BME280;40551;50.478;19.378;2023-07-02T12:05:50;97020.55;;;24.70;58.82
53526;BME280;40551;50.478;19.378;2023-07-02T12:08:23;97021.11;;;24.72;58.36
53526;BME280;40551;50.478;19.378;2023-07-02T12:10:54;97019.25;;;24.73;58.26
53526;BME280;40551;50.478;19.378;2023-07-02T12:13:26;97022.15;;;24.74;58.37
53526;BME280;40551;50.478;19.378;2023-07-02T12:15:58;97018.75;;;24.76;58.16
53526;BME280;40551;50.478;19.378;2023-07-02T12:18:30;97017.52;;;24.70;57.73
53526;BME280;40551;50.478;19.378;2023-07-02T12:21:02;97021.73;;;24.63;57.94
53526;BME280;40551;50.478;19.378;2023-07-02T12:23:34;97019.81;;;24.55;57.87
53526;BME280;40551;50.478;19.378;2023-07-02T12:26:07;97022.45;;;24.43;57.59
53526;BME280;40551;50.478;19.378;2023-07-02T12:28:39;97024.25;;;24.26;57.60
53526;BME280;40551;50.478;19.378;2023-07-02T12:31:11;97036.35;;;24.09;58.04
53526;BME280;40551;50.478;19.378;2023-07-02T12:33:44;97085.95;;;23.94;58.76
53526;BME280;40551;50.478;19.378;2023-07-02T12:36:16;97105.18;;;23.53;59.62
53526;BME280;40551;50.478;19.378;2023-07-02T12:38:48;97112.14;;;22.99;60.37
53526;BME280;40551;50.478;19.378;2023-07-02T12:41:21;97120.37;;;22.44;61.45
53526;BME280;40551;50.478;19.378;2023-07-02T12:43:52;97123.99;;;21.99;62.72
53526;BME280;40551;50.478;19.378;2023-07-02T12:46:24;97134.27;;;21.55;63.61
53526;BME280;40551;50.478;19.378;2023-07-02T12:48:56;97127.81;;;21.22;64.53
53526;BME280;40551;50.478;19.378;2023-07-02T12:51:29;97132.40;;;20.94;65.10
53526;BME280;40551;50.478;19.378;2023-07-02T12:54:01;97135.57;;;20.70;65.88
53526;BME280;40551;50.478;19.378;2023-07-02T12:56:33;97129.91;;;20.48;66.65
53526;BME280;40551;50.478;19.378;2023-07-02T12:59:05;97128.61;;;20.28;66.92
53526;BME280;40551;50.478;19.378;2023-07-02T13:01:37;97127.17;;;20.16;67.77
53526;BME280;40551;50.478;19.378;2023-07-02T13:04:10;97124.30;;;20.04;68.20
53526;BME280;40551;50.478;19.378;2023-07-02T13:06:42;97120.65;;;19.95;68.60
53526;BME280;40551;50.478;19.378;2023-07-02T13:09:16;97124.31;;;19.92;69.64
53526;BME280;40551;50.478;19.378;2023-07-02T13:11:48;97128.98;;;19.88;69.63
53526;BME280;40551;50.478;19.378;2023-07-02T13:14:20;97131.22;;;19.81;69.82
53526;BME280;40551;50.478;19.378;2023-07-02T13:16:51;97135.19;;;19.80;70.56
53526;BME280;40551;50.478;19.378;2023-07-02T13:19:25;97137.27;;;19.82;71.07
53526;BME280;40551;50.478;19.378;2023-07-02T13:21:58;97137.51;;;19.81;71.05